createdAt,value
2022-08-24T00:02:24.547Z,100963.28
2022-08-24T00:04:52.645Z,100932.06
2022-08-24T00:07:27.300Z,100982.63
2022-08-24T00:09:55.406Z,100984.34
2022-08-24T00:12:21.974Z,100940.19
2022-08-24T00:14:49.541Z,100885.81
2022-08-24T00:17:17.330Z,100931.25
2022-08-24T00:19:44.158Z,100945.13
2022-08-24T00:22:10.690Z,100956.88
2022-08-24T00:24:37.357Z,100960.09
2022-08-24T00:27:05.573Z,100962.22
2022-08-24T00:29:32.735Z,100975.88
2022-08-24T00:31:59.230Z,100984.28
2022-08-24T00:34:26.580Z,100990.13
2022-08-24T00:36:53.576Z,100960.84
2022-08-24T00:39:20.998Z,100973.88
2022-08-24T00:41:49.506Z,100968.09
2022-08-24T00:44:17.575Z,100953.34
2022-08-24T00:46:46.580Z,100969.25
2022-08-24T00:49:39.862Z,100990.53
2022-08-24T00:52:15.197Z,100995.44
2022-08-24T00:54:50.947Z,100942.44
2022-08-24T00:57:25.064Z,100953.38
2022-08-24T00:59:55.707Z,100991.09
2022-08-24T01:02:26.545Z,100923.19
2022-08-24T01:04:56.712Z,100951.75
2022-08-24T01:07:25.380Z,100960.63
2022-08-24T01:09:53.680Z,100986.94
2022-08-24T01:12:21.115Z,100930.06
2022-08-24T01:14:47.869Z,100974.13
2022-08-24T01:17:37.852Z,100986.41
2022-08-24T01:20:07.262Z,100962.56
2022-08-24T01:22:50.335Z,100964.50
2022-08-24T01:25:17.304Z,100981.50
2022-08-24T01:27:45.117Z,100983.31
2022-08-24T01:30:15.830Z,100990.38
2022-08-24T01:32:54.638Z,100972.41
2022-08-24T01:35:21.326Z,100939.25
2022-08-24T01:37:48.883Z,100989.59
2022-08-24T01:40:16.073Z,100979.47
2022-08-24T01:42:51.593Z,100971.97
2022-08-24T01:45:19.782Z,100988.78
2022-08-24T01:47:46.315Z,100969.81
2022-08-24T01:50:12.942Z,100985.09
2022-08-24T01:53:03.800Z,100981.75
2022-08-24T01:55:28.991Z,100922.91
2022-08-24T01:57:55.610Z,100984.31
2022-08-24T02:00:22.461Z,100985.16
2022-08-24T02:02:48.910Z,100992.19
2022-08-24T02:05:16.838Z,100973.38
2022-08-24T02:07:43.262Z,100953.59
2022-08-24T02:10:11.636Z,100990.16
2022-08-24T02:12:39.966Z,101000.47
2022-08-24T02:15:08.623Z,100972.75
2022-08-24T02:17:36.717Z,100870.66
2022-08-24T02:20:05.545Z,100957.28
2022-08-24T02:22:32.151Z,100962.28
2022-08-24T02:24:58.579Z,100970.03
2022-08-24T02:27:24.984Z,100944.50
2022-08-24T02:29:51.378Z,100936.09
2022-08-24T02:32:17.850Z,100985.56
2022-08-24T02:34:44.275Z,100952.41
2022-08-24T02:37:10.888Z,100909.81
2022-08-24T02:39:37.528Z,100982.34
2022-08-24T02:42:04.109Z,100917.56
2022-08-24T02:44:30.574Z,100889.06
2022-08-24T02:46:57.396Z,100969.53
2022-08-24T02:49:23.927Z,100953.03
2022-08-24T02:51:50.557Z,100965.34
2022-08-24T02:54:18.218Z,101003.97
2022-08-24T02:56:46.643Z,100971.31
2022-08-24T02:59:14.081Z,100991.66
2022-08-24T03:01:41.122Z,100982.09
2022-08-24T03:04:07.980Z,100936.66
2022-08-24T03:06:34.801Z,100972.75
2022-08-24T03:09:01.199Z,100987.69
2022-08-24T03:11:28.526Z,100926.41
2022-08-24T03:14:00.208Z,100968.59
2022-08-24T03:16:28.098Z,101012.47
2022-08-24T03:18:54.588Z,100981.91
2022-08-24T03:21:21.103Z,100950.47
2022-08-24T03:23:47.967Z,101013.34
2022-08-24T03:26:14.952Z,100979.00
2022-08-24T03:28:41.475Z,100990.34
2022-08-24T03:31:11.329Z,100980.53
2022-08-24T03:33:37.939Z,100990.94
2022-08-24T03:36:04.478Z,100893.19
2022-08-24T03:38:30.920Z,100885.19
2022-08-24T03:40:57.547Z,100980.44
2022-08-24T03:43:42.356Z,100980.22
2022-08-24T03:46:09.170Z,101001.78
2022-08-24T03:48:36.614Z,100984.44
2022-08-24T03:51:03.264Z,100975.13
2022-08-24T03:53:29.731Z,100948.44
2022-08-24T03:55:56.263Z,100977.41
2022-08-24T03:58:22.694Z,100967.88
2022-08-24T04:00:50.412Z,100962.34
2022-08-24T04:03:17.021Z,101001.72
2022-08-24T04:05:43.519Z,100952.47
2022-08-24T04:08:10.454Z,100912.09
2022-08-24T04:10:38.293Z,101014.69
2022-08-24T04:13:06.350Z,100882.41
2022-08-24T04:15:32.860Z,100900.13
2022-08-24T04:17:59.272Z,100891.84
2022-08-24T04:20:26.132Z,100888.53
2022-08-24T04:22:53.511Z,100974.13
2022-08-24T04:25:24.635Z,101016.53
2022-08-24T04:27:52.112Z,100980.63
2022-08-24T04:30:18.736Z,100990.91
2022-08-24T04:32:45.381Z,100955.13
2022-08-24T04:35:12.602Z,100998.06
2022-08-24T04:37:39.026Z,100949.94
2022-08-24T04:40:08.052Z,100988.63
2022-08-24T04:42:34.876Z,100990.72
2022-08-24T04:45:01.503Z,100969.72
2022-08-24T04:47:27.946Z,101002.44
2022-08-24T04:49:54.478Z,100982.59
2022-08-24T04:52:21.146Z,100955.38
2022-08-24T04:54:47.659Z,100976.75
2022-08-24T04:57:17.894Z,100966.78
2022-08-24T04:59:44.711Z,101003.06
2022-08-24T05:02:11.240Z,101011.09
2022-08-24T05:04:37.675Z,100940.94
2022-08-24T05:07:04.911Z,100975.31
2022-08-24T05:09:31.782Z,101009.75
2022-08-24T05:11:58.305Z,100971.09
2022-08-24T05:14:28.649Z,101007.28
2022-08-24T05:16:55.801Z,101021.47
2022-08-24T05:19:23.547Z,100979.31
2022-08-24T05:21:50.825Z,100932.38
2022-08-24T05:24:17.454Z,101028.81
2022-08-24T05:26:43.915Z,101033.91
2022-08-24T05:29:10.742Z,101013.19
2022-08-24T05:31:37.704Z,101024.03
2022-08-24T05:34:04.842Z,101034.16
2022-08-24T05:36:38.229Z,101022.22
2022-08-24T05:39:12.415Z,101037.41
2022-08-24T05:41:44.314Z,101039.94
2022-08-24T05:44:15.631Z,101067.09
2022-08-24T05:46:43.152Z,100946.19
2022-08-24T05:49:10.299Z,100990.94
2022-08-24T05:51:36.830Z,101022.72
2022-08-24T05:54:05.029Z,101026.16
2022-08-24T05:56:32.178Z,101057.41
2022-08-24T05:58:59.227Z,101063.31
2022-08-24T06:01:27.141Z,101065.00
2022-08-24T06:03:55.455Z,101003.56
2022-08-24T06:06:23.153Z,101076.50
2022-08-24T06:08:52.692Z,101068.22
2022-08-24T06:11:30.265Z,101050.63
2022-08-24T06:14:00.548Z,101077.19
2022-08-24T06:16:27.204Z,101018.16
2022-08-24T06:18:54.100Z,101022.72
2022-08-24T06:21:25.746Z,101045.41
2022-08-24T06:23:55.083Z,101067.84
2022-08-24T06:26:40.463Z,101051.13
2022-08-24T06:29:10.622Z,101043.50
2022-08-24T06:31:39.885Z,101039.47
2022-08-24T06:34:14.162Z,101038.63
2022-08-24T06:36:41.436Z,101016.06
2022-08-24T06:39:09.965Z,101064.78
2022-08-24T06:41:37.812Z,101031.25
2022-08-24T06:44:05.049Z,101073.06
2022-08-24T06:46:33.043Z,101059.59
2022-08-24T06:48:59.703Z,101043.97
2022-08-24T06:51:26.114Z,101036.91
2022-08-24T06:53:56.125Z,101049.59
2022-08-24T06:56:26.574Z,101066.09
2022-08-24T06:58:52.998Z,101070.59
2022-08-24T07:01:25.944Z,101064.63
2022-08-24T07:03:53.259Z,101089.94
2022-08-24T07:06:20.318Z,101077.31
2022-08-24T07:08:46.770Z,101051.84
2022-08-24T07:11:15.509Z,101069.66
2022-08-24T07:13:42.534Z,101087.47
2022-08-24T07:16:10.189Z,101070.97
2022-08-24T07:18:37.380Z,101080.84
2022-08-24T07:21:07.297Z,101063.28
2022-08-24T07:23:42.295Z,101088.44
2022-08-24T07:26:20.868Z,101048.34
2022-08-24T07:29:06.711Z,101100.34
2022-08-24T07:31:35.693Z,101105.06
2022-08-24T07:34:03.968Z,101074.59
2022-08-24T07:36:30.512Z,101073.16
2022-08-24T07:38:57.272Z,101074.88
2022-08-24T07:44:15.605Z,101106.09
2022-08-24T07:46:43.085Z,101112.50
2022-08-24T07:49:28.027Z,101086.91
2022-08-24T07:51:57.896Z,101058.13
2022-08-24T07:54:24.347Z,101112.44
2022-08-24T07:56:50.770Z,101103.44
2022-08-24T07:59:17.630Z,101103.22
2022-08-24T08:01:44.687Z,101078.59
2022-08-24T08:04:11.251Z,101129.94
2022-08-24T08:06:37.787Z,101124.97
2022-08-24T08:09:05.332Z,101087.28
2022-08-24T08:11:32.597Z,101121.56
2022-08-24T08:13:59.341Z,101127.44
2022-08-24T08:16:26.345Z,101101.09
2022-08-24T08:19:09.398Z,101101.22
2022-08-24T08:22:07.208Z,101084.31
2022-08-24T08:24:34.888Z,101132.63
2022-08-24T08:27:01.825Z,101126.53
2022-08-24T08:29:31.428Z,101143.38
2022-08-24T08:31:57.971Z,101129.22
2022-08-24T08:34:24.515Z,101118.72
2022-08-24T08:36:51.481Z,101121.91
2022-08-24T08:39:19.966Z,101086.75
2022-08-24T08:42:28.030Z,101145.69
2022-08-24T08:45:31.886Z,101140.19
2022-08-24T08:48:36.522Z,101138.13
2022-08-24T08:51:21.881Z,101147.44
2022-08-24T08:54:12.929Z,101141.81
2022-08-24T08:57:05.158Z,101086.88
2022-08-24T08:59:54.345Z,101135.84
2022-08-24T09:03:09.206Z,101064.94
2022-08-24T09:08:57.693Z,101136.06
2022-08-24T09:11:41.370Z,101070.00
2022-08-24T09:14:31.950Z,101126.88
2022-08-24T09:17:04.327Z,101129.38
2022-08-24T09:20:09.611Z,101128.28
2022-08-24T09:22:40.888Z,101118.28
2022-08-24T09:25:26.629Z,101092.63
2022-08-24T09:28:00.285Z,101120.16
2022-08-24T09:30:41.411Z,101109.00
2022-08-24T09:33:21.367Z,101119.66
2022-08-24T09:35:51.427Z,101123.09
2022-08-24T09:38:41.203Z,101126.50
2022-08-24T09:41:18.910Z,101106.03
2022-08-24T09:44:20.106Z,101125.56
2022-08-24T09:47:17.826Z,101109.22
2022-08-24T09:50:11.726Z,101123.50
2022-08-24T09:53:16.161Z,101118.72
2022-08-24T09:56:11.760Z,101123.28
2022-08-24T09:58:58.977Z,101119.94
2022-08-24T10:01:39.902Z,101087.84
2022-08-24T10:04:32.397Z,101108.91
2022-08-24T10:07:18.255Z,101068.53
2022-08-24T10:09:59.469Z,101101.81
2022-08-24T10:12:56.334Z,101103.66
2022-08-24T10:15:37.800Z,101077.34
2022-08-24T10:18:35.147Z,101091.00
2022-08-24T10:21:17.147Z,101102.31
2022-08-24T10:24:02.327Z,101095.59
2022-08-24T10:26:45.628Z,101096.53
2022-08-24T10:29:51.265Z,101094.22
2022-08-24T10:32:41.034Z,101091.03
2022-08-24T10:35:18.180Z,101090.81
2022-08-24T10:38:24.436Z,101084.94
2022-08-24T10:41:15.865Z,101085.03
2022-08-24T10:44:11.158Z,101076.53
2022-08-24T10:46:53.521Z,101058.81
2022-08-24T10:49:35.137Z,101067.22
2022-08-24T10:52:01.514Z,101075.41
2022-08-24T10:54:28.277Z,101044.91
2022-08-24T10:57:10.298Z,101063.97
2022-08-24T11:00:22.605Z,101048.88
2022-08-24T11:02:50.317Z,101042.09
2022-08-24T11:05:29.974Z,101056.78
2022-08-24T11:08:02.694Z,101062.19
2022-08-24T11:10:35.193Z,101063.94
2022-08-24T11:13:21.755Z,101067.75
2022-08-24T11:16:02.329Z,101068.47
2022-08-24T11:18:47.790Z,101055.59
2022-08-24T11:21:33.753Z,101049.84
2022-08-24T11:24:32.496Z,101051.22
2022-08-24T11:27:24.254Z,101058.13
2022-08-24T11:29:54.635Z,101050.88
2022-08-24T11:32:37.173Z,101043.41
2022-08-24T11:35:09.446Z,101049.75
2022-08-24T11:37:38.620Z,101047.34
2022-08-24T11:40:08.625Z,101048.78
2022-08-24T11:43:05.733Z,101022.31
2022-08-24T11:45:42.557Z,101047.66
2022-08-24T11:48:27.236Z,101033.28
2022-08-24T11:51:14.990Z,101008.84
2022-08-24T11:54:09.401Z,101036.38
2022-08-24T11:56:48.814Z,101031.59
2022-08-24T11:59:21.382Z,101028.88
2022-08-24T12:01:53.788Z,101011.25
2022-08-24T12:04:49.202Z,101012.09
2022-08-24T12:07:26.539Z,101032.81
2022-08-24T12:09:55.855Z,101030.91
2022-08-24T12:12:35.649Z,101003.03
2022-08-24T12:15:12.728Z,101030.50
2022-08-24T12:17:42.350Z,101005.06
2022-08-24T12:20:31.848Z,101018.69
2022-08-24T12:23:03.201Z,101016.31
2022-08-24T12:25:51.734Z,101022.75
2022-08-24T12:28:29.147Z,101020.09
2022-08-24T12:30:59.749Z,101000.06
2022-08-24T12:33:31.876Z,101017.69
2022-08-24T12:36:03.058Z,101010.28
2022-08-24T12:38:42.022Z,101014.81
2022-08-24T12:41:24.189Z,100996.09
2022-08-24T12:44:01.528Z,101008.97
2022-08-24T12:46:28.169Z,100996.09
2022-08-24T12:49:23.024Z,100989.84
2022-08-24T12:52:04.695Z,101005.69
2022-08-24T12:54:51.930Z,101004.53
2022-08-24T12:57:35.606Z,100979.88
2022-08-24T13:00:10.681Z,100994.91
2022-08-24T13:02:44.093Z,101009.78
2022-08-24T13:05:19.012Z,100943.31
2022-08-24T13:07:49.029Z,101011.13
2022-08-24T13:10:24.734Z,101009.28
2022-08-24T13:13:05.096Z,101007.06
2022-08-24T13:15:31.449Z,101006.84
2022-08-24T13:18:17.778Z,101002.50
2022-08-24T13:20:44.199Z,100997.56
2022-08-24T13:23:19.132Z,101004.44
2022-08-24T13:25:49.760Z,101003.50
2022-08-24T13:28:25.420Z,101004.59
2022-08-24T13:31:23.129Z,100996.31
2022-08-24T13:34:09.067Z,100994.16
2022-08-24T13:36:57.585Z,100987.50
2022-08-24T13:39:54.878Z,100991.19
2022-08-24T13:42:27.702Z,100985.66
2022-08-24T13:45:09.527Z,100988.38
2022-08-24T13:48:06.878Z,100985.56
2022-08-24T13:50:59.140Z,100956.78
2022-08-24T13:53:52.627Z,100977.13
2022-08-24T13:56:33.300Z,100969.97
2022-08-24T13:59:34.835Z,100971.78
2022-08-24T14:02:16.455Z,100971.88
2022-08-24T14:05:05.887Z,100945.91
2022-08-24T14:08:07.710Z,100966.72
2022-08-24T14:11:07.876Z,100947.81
2022-08-24T14:13:47.810Z,100966.16
2022-08-24T14:16:57.028Z,100948.25
2022-08-24T14:19:32.754Z,100937.88
2022-08-24T14:21:59.295Z,100958.19
2022-08-24T14:24:39.588Z,100898.69
2022-08-24T14:27:35.230Z,100928.22
2022-08-24T14:30:23.382Z,100957.81
2022-08-24T14:33:03.384Z,100951.31
2022-08-24T14:35:44.743Z,100954.09
2022-08-24T14:38:20.206Z,100955.28
2022-08-24T14:40:52.725Z,100951.56
2022-08-24T14:44:03.614Z,100942.78
2022-08-24T14:47:02.394Z,100939.91
2022-08-24T14:49:35.665Z,100938.63
2022-08-24T14:52:42.265Z,100909.78
2022-08-24T14:55:18.580Z,100906.81
2022-08-24T14:57:52.008Z,100928.13
2022-08-24T15:00:20.416Z,100932.13
2022-08-24T15:03:11.937Z,100898.44
2022-08-24T15:06:25.141Z,100909.53
2022-08-24T15:08:47.571Z,100904.63
2022-08-24T15:11:24.605Z,100890.25
2022-08-24T15:13:56.615Z,100902.34
2022-08-24T15:16:33.801Z,100897.16
2022-08-24T15:19:19.565Z,100912.72
2022-08-24T15:22:04.815Z,100901.94
2022-08-24T15:24:57.170Z,100903.63
2022-08-24T15:27:42.381Z,100902.06
2022-08-24T15:30:29.012Z,100893.91
2022-08-24T15:33:19.320Z,100888.13
2022-08-24T15:36:03.253Z,100895.59
2022-08-24T15:38:29.561Z,100903.72
2022-08-24T15:41:19.954Z,100860.63
2022-08-24T15:43:52.222Z,100895.66
2022-08-24T15:46:27.775Z,100881.53
2022-08-24T15:49:04.406Z,100873.09
2022-08-24T15:51:43.179Z,100889.19
2022-08-24T15:54:30.447Z,100866.31
2022-08-24T15:57:09.359Z,100885.84
2022-08-24T15:59:41.755Z,100879.84
2022-08-24T16:02:26.868Z,100883.25
2022-08-24T16:05:24.191Z,100894.53
2022-08-24T16:08:03.307Z,100887.78
2022-08-24T16:10:51.872Z,100797.28
2022-08-24T16:13:18.222Z,100883.13
2022-08-24T16:15:51.317Z,100807.69
2022-08-24T16:18:20.345Z,100876.22
2022-08-24T16:20:48.928Z,100884.03
2022-08-24T16:23:28.228Z,100878.00
2022-08-24T16:26:53.642Z,100859.72
2022-08-24T16:29:38.257Z,100883.84
2022-08-24T16:32:33.590Z,100881.00
2022-08-24T16:35:13.319Z,100878.91
2022-08-24T16:37:40.137Z,100855.81
2022-08-24T16:40:08.935Z,100839.38
2022-08-24T16:42:36.492Z,100872.94
2022-08-24T16:45:05.498Z,100869.59
2022-08-24T16:47:32.026Z,100835.38
2022-08-24T16:49:58.889Z,100814.03
2022-08-24T16:52:25.397Z,100857.72
2022-08-24T16:54:51.851Z,100854.78
2022-08-24T16:57:23.195Z,100868.16
2022-08-24T16:59:52.024Z,100870.00
2022-08-24T17:02:20.436Z,100842.25
2022-08-24T17:04:46.944Z,100839.41
2022-08-24T17:07:22.148Z,100858.66
2022-08-24T17:09:48.884Z,100854.31
2022-08-24T17:12:15.573Z,100812.38
2022-08-24T17:14:42.776Z,100861.00
2022-08-24T17:17:13.268Z,100855.28
2022-08-24T17:19:40.469Z,100764.72
2022-08-24T17:22:14.336Z,100806.56
2022-08-24T17:24:43.212Z,100871.25
2022-08-24T17:27:09.657Z,100862.53
2022-08-24T17:29:36.268Z,100840.91
2022-08-24T17:32:02.946Z,100852.97
2022-08-24T17:34:29.439Z,100855.78
2022-08-24T17:36:57.065Z,100885.63
2022-08-24T17:39:24.128Z,100859.53
2022-08-24T17:41:52.320Z,100885.00
2022-08-24T17:44:24.877Z,100885.34
2022-08-24T17:46:54.040Z,100881.63
2022-08-24T17:49:21.109Z,100891.19
2022-08-24T17:51:50.659Z,100864.13
2022-08-24T17:54:18.008Z,100859.53
2022-08-24T17:56:46.563Z,100892.91
2022-08-24T17:59:22.856Z,100873.97
2022-08-24T18:01:55.402Z,100890.56
2022-08-24T18:04:26.029Z,100865.84
2022-08-24T18:06:52.754Z,100883.84
2022-08-24T18:09:36.648Z,100860.47
2022-08-24T18:12:05.863Z,100890.31
2022-08-24T18:14:34.460Z,100883.63
2022-08-24T18:17:08.569Z,100885.31
2022-08-24T18:19:35.812Z,100892.25
2022-08-24T18:22:04.337Z,100847.88
2022-08-24T18:24:32.455Z,100877.34
2022-08-24T18:27:10.156Z,100900.94
2022-08-24T18:29:39.658Z,100869.72
2022-08-24T18:32:06.812Z,100860.72
2022-08-24T18:34:34.208Z,100898.91
2022-08-24T18:37:01.063Z,100820.69
2022-08-24T18:39:27.687Z,100884.28
2022-08-24T18:41:55.583Z,100903.94
2022-08-24T18:44:26.141Z,100915.13
2022-08-24T18:46:54.753Z,100897.59
2022-08-24T18:49:21.806Z,100897.41
2022-08-24T18:51:49.147Z,100909.22
2022-08-24T18:54:20.567Z,100901.44
2022-08-24T18:56:47.224Z,100890.56
2022-08-24T18:59:15.779Z,100888.66
2022-08-24T19:02:02.177Z,100909.16
2022-08-24T19:04:32.601Z,100893.59
2022-08-24T19:06:59.993Z,100909.72
2022-08-24T19:09:29.639Z,100900.53
2022-08-24T19:11:58.624Z,100907.47
2022-08-24T19:14:25.123Z,100912.19
2022-08-24T19:16:52.471Z,100928.56
2022-08-24T19:19:19.814Z,100921.06
2022-08-24T19:21:46.326Z,100917.00
2022-08-24T19:24:13.183Z,100844.75
2022-08-24T19:26:39.968Z,100831.84
2022-08-24T19:29:06.422Z,100903.81
2022-08-24T19:31:33.864Z,100884.59
2022-08-24T19:34:03.650Z,100933.75
2022-08-24T19:36:30.619Z,100943.88
2022-08-24T19:38:57.136Z,100851.75
2022-08-24T19:41:24.103Z,100905.31
2022-08-24T19:44:27.800Z,100910.41
2022-08-24T19:46:55.491Z,100917.03
2022-08-24T19:49:22.117Z,100913.44
2022-08-24T19:51:48.642Z,100911.75
2022-08-24T19:54:15.119Z,100848.31
2022-08-24T19:56:41.767Z,100946.56
2022-08-24T19:59:20.669Z,100944.47
2022-08-24T20:01:47.183Z,100926.63
2022-08-24T20:04:13.681Z,100931.97
2022-08-24T20:06:41.085Z,100895.78
2022-08-24T20:09:08.697Z,100951.56
2022-08-24T20:11:35.938Z,100952.88
2022-08-24T20:14:02.769Z,100858.28
2022-08-24T20:16:35.223Z,100940.34
2022-08-24T20:19:03.062Z,100945.75
2022-08-24T20:21:30.249Z,100937.09
2022-08-24T20:24:00.462Z,100936.34
2022-08-24T20:26:28.933Z,100933.66
2022-08-24T20:28:58.764Z,100943.88
2022-08-24T20:31:28.431Z,100909.56
2022-08-24T20:33:57.172Z,100918.19
2022-08-24T20:36:36.199Z,100931.66
2022-08-24T20:39:05.962Z,100928.53
2022-08-24T20:41:32.621Z,100892.97
2022-08-24T20:43:59.495Z,100901.75
2022-08-24T20:46:26.992Z,100926.88
2022-08-24T20:48:55.881Z,100927.44
2022-08-24T20:51:24.104Z,100914.09
2022-08-24T20:53:50.537Z,100834.13
2022-08-24T20:56:28.709Z,100891.94
2022-08-24T20:58:58.234Z,100936.53
2022-08-24T21:01:24.881Z,100881.03
2022-08-24T21:03:51.664Z,100829.22
2022-08-24T21:06:19.511Z,100937.09
2022-08-24T21:08:48.275Z,100924.59
2022-08-24T21:11:16.053Z,100861.47
2022-08-24T21:13:42.557Z,100849.06
2022-08-24T21:16:14.907Z,100901.91
2022-08-24T21:18:44.781Z,100915.22
2022-08-24T21:21:11.225Z,100890.81
2022-08-24T21:23:37.689Z,100885.97
2022-08-24T21:26:08.030Z,100826.81
2022-08-24T21:28:36.290Z,100924.88
2022-08-24T21:31:06.138Z,100927.41
2022-08-24T21:33:51.344Z,100928.84
2022-08-24T21:36:18.018Z,100907.25
2022-08-24T21:38:45.406Z,100843.31
2022-08-24T21:41:12.193Z,100951.56
2022-08-24T21:43:38.596Z,100919.78
2022-08-24T21:46:05.843Z,100830.75
2022-08-24T21:48:32.342Z,100917.63
2022-08-24T21:50:58.787Z,100837.84
2022-08-24T21:53:28.465Z,100900.81
2022-08-24T21:55:55.961Z,100906.78
2022-08-24T21:58:24.009Z,100832.06
2022-08-24T22:00:51.426Z,100910.56
2022-08-24T22:03:17.979Z,100920.81
2022-08-24T22:05:44.428Z,100915.97
2022-08-24T22:08:11.313Z,100912.56
2022-08-24T22:10:38.124Z,100946.28
2022-08-24T22:13:04.884Z,100928.97
2022-08-24T22:15:34.279Z,100919.13
2022-08-24T22:18:01.293Z,100848.25
2022-08-24T22:20:27.884Z,100940.28
2022-08-24T22:22:54.309Z,100854.75
2022-08-24T22:25:20.803Z,100918.22
2022-08-24T22:27:47.618Z,100875.00
2022-08-24T22:30:17.382Z,100898.84
2022-08-24T22:32:45.353Z,100908.03
2022-08-24T22:35:12.543Z,100927.78
2022-08-24T22:37:39.099Z,100894.97
2022-08-24T22:40:06.705Z,100933.06
2022-08-24T22:42:39.297Z,100927.53
2022-08-24T22:45:07.031Z,100843.88
2022-08-24T22:47:33.705Z,100838.72
2022-08-24T22:50:00.128Z,100898.38
2022-08-24T22:52:26.677Z,100937.38
2022-08-24T22:54:58.415Z,100933.25
2022-08-24T22:57:25.562Z,100898.91
2022-08-24T22:59:53.221Z,100849.44
2022-08-24T23:02:19.789Z,100883.50
2022-08-24T23:04:49.706Z,100934.94
2022-08-24T23:07:16.582Z,100880.84
2022-08-24T23:09:45.417Z,100902.16
2022-08-24T23:12:18.230Z,100906.69
2022-08-24T23:14:44.893Z,100835.84
2022-08-24T23:17:11.611Z,100930.50
2022-08-24T23:19:56.600Z,100881.50
2022-08-24T23:22:23.057Z,100924.88
2022-08-24T23:24:49.527Z,100918.69
2022-08-24T23:27:17.175Z,100913.78
2022-08-24T23:29:45.861Z,100937.94
2022-08-24T23:32:12.930Z,100934.53
2022-08-24T23:34:45.046Z,100921.94
2022-08-24T23:37:11.487Z,100867.03
2022-08-24T23:39:38.077Z,100921.59
2022-08-24T23:42:05.946Z,100921.84
2022-08-24T23:44:33.589Z,100948.84
2022-08-24T23:47:00.416Z,100831.41
2022-08-24T23:49:28.311Z,100866.44
2022-08-24T23:51:54.760Z,100886.69
2022-08-24T23:54:22.057Z,100876.44
2022-08-24T23:56:49.262Z,100857.41
2022-08-24T23:59:19.355Z,100942.84
